Time;durP1;ratioP1;P1;durP2;ratioP2;P2;SDS_P1;SDS_P2;PMS_P1;PMS_P2;Temp;Humidity;BMP_temperature;BMP_pressure;BME280_temperature;BME280_humidity;BME280_pressure;Samples;Min_cycle;Max_cycle;Signal;HPM_P1;HPM_P2
2023/05/31 00:00:46;;;;;;;3.30;2.03;;;15.90;99.90;;;;;;5097567;27;20175;-31
2023/05/31 00:03:13;;;;;;;6.03;2.10;;;15.90;99.90;;;;;;5097875;27;20175;-31
2023/05/31 00:05:39;;;;;;;3.53;2.20;;;15.90;99.90;;;;;;5123367;27;20186;-31
2023/05/31 00:08:05;;;;;;;4.90;2.20;;;15.80;99.90;;;;;;5096641;27;20179;-31
2023/05/31 00:10:31;;;;;;;6.40;2.17;;;15.80;99.90;;;;;;5095488;27;20313;-31
2023/05/31 00:12:56;;;;;;;3.57;2.17;;;15.80;99.90;;;;;;5094440;28;20262;-31
2023/05/31 00:15:22;;;;;;;5.27;2.00;;;15.80;99.90;;;;;;5110684;27;20210;-31
2023/05/31 00:17:48;;;;;;;4.37;2.40;;;15.70;99.90;;;;;;5093935;28;20192;-31
2023/05/31 00:20:14;;;;;;;4.23;2.03;;;15.70;99.90;;;;;;5109880;27;20175;-31
2023/05/31 00:22:40;;;;;;;4.97;2.00;;;15.60;99.90;;;;;;5093819;27;20180;-29
2023/05/31 00:25:06;;;;;;;2.63;2.07;;;15.50;99.90;;;;;;5108577;27;20183;-30
2023/05/31 00:27:32;;;;;;;4.07;2.03;;;15.50;99.90;;;;;;5114147;27;20252;-31
2023/05/31 00:29:57;;;;;;;4.13;2.10;;;15.40;99.90;;;;;;5133050;27;20201;-32
2023/05/31 00:32:23;;;;;;;6.27;2.30;;;15.40;99.90;;;;;;5093855;27;20211;-32
2023/05/31 00:34:49;;;;;;;7.33;2.37;;;15.30;99.90;;;;;;5101462;27;20350;-31
2023/05/31 00:37:15;;;;;;;4.13;2.40;;;15.20;99.90;;;;;;5113756;27;20194;-30
2023/05/31 00:39:41;;;;;;;2.80;2.20;;;15.20;99.90;;;;;;5096837;27;20207;-31
2023/05/31 00:42:07;;;;;;;4.50;2.30;;;15.20;99.90;;;;;;5102440;27;20178;-32
2023/05/31 00:44:35;;;;;;;5.17;2.20;;;15.10;99.90;;;;;;5096739;27;20204;-30
2023/05/31 00:47:01;;;;;;;4.63;2.23;;;15.10;99.90;;;;;;5130915;27;20182;-31
2023/05/31 00:49:28;;;;;;;4.30;2.40;;;15.10;99.90;;;;;;5131142;27;20171;-31
2023/05/31 00:51:54;;;;;;;4.63;2.40;;;15.00;99.90;;;;;;5093341;28;20176;-32
2023/05/31 00:54:20;;;;;;;5.17;2.90;;;15.00;99.90;;;;;;5097155;28;20203;-32
2023/05/31 00:56:46;;;;;;;5.03;2.50;;;15.00;99.90;;;;;;5117709;27;20186;-31
2023/05/31 00:59:12;;;;;;;3.93;2.37;;;15.00;99.90;;;;;;5096888;27;20206;-31
2023/05/31 01:01:38;;;;;;;3.07;2.30;;;15.00;99.90;;;;;;5094859;27;20187;-30
2023/05/31 01:04:05;;;;;;;3.83;2.23;;;14.90;99.90;;;;;;5113860;28;20191;-30
2023/05/31 01:06:32;;;;;;;3.70;2.33;;;14.90;99.90;;;;;;5093820;27;20188;-31
2023/05/31 01:09:00;;;;;;;3.27;2.10;;;14.80;99.90;;;;;;5131946;27;20209;-30
2023/05/31 01:11:58;;;;;;;4.93;2.80;;;14.90;99.90;;;;;;5093095;27;20180;-31
2023/05/31 01:14:42;;;;;;;6.77;2.47;;;14.90;99.90;;;;;;5093372;28;20211;-31
2023/05/31 01:17:30;;;;;;;6.13;2.50;;;14.80;99.90;;;;;;5107727;27;20198;-31
2023/05/31 01:20:08;;;;;;;4.07;2.27;;;14.80;99.90;;;;;;5093142;28;20230;-30
2023/05/31 01:22:57;;;;;;;3.43;2.13;;;14.80;99.90;;;;;;5084717;27;20180;-31
2023/05/31 01:25:32;;;;;;;5.37;2.30;;;14.80;99.90;;;;;;5096209;28;20191;-30
2023/05/31 01:27:59;;;;;;;2.83;1.80;;;14.70;99.90;;;;;;5096147;28;20172;-30
2023/05/31 01:30:29;;;;;;;2.40;2.07;;;14.60;99.90;;;;;;5129783;27;20183;-30
2023/05/31 01:32:57;;;;;;;2.97;2.20;;;14.60;99.90;;;;;;5093295;28;20184;-30
2023/05/31 01:35:23;;;;;;;4.77;2.20;;;14.50;99.90;;;;;;5080776;28;20199;-31
2023/05/31 01:37:49;;;;;;;5.80;2.40;;;14.50;99.90;;;;;;5101662;27;20180;-31
2023/05/31 01:40:16;;;;;;;4.20;2.27;;;14.50;99.90;;;;;;5091167;28;20242;-31
2023/05/31 01:42:44;;;;;;;4.57;2.20;;;14.50;99.90;;;;;;5115622;27;20183;-31
2023/05/31 01:45:14;;;;;;;3.70;2.30;;;14.50;99.90;;;;;;5098591;28;20202;-31
2023/05/31 01:47:42;;;;;;;2.90;2.20;;;14.50;99.90;;;;;;5113180;27;20187;-30
2023/05/31 01:50:12;;;;;;;4.93;2.27;;;14.50;99.90;;;;;;5113221;28;20261;-32
2023/05/31 01:52:40;;;;;;;3.47;2.23;;;14.50;99.90;;;;;;5092890;27;20196;-31
2023/05/31 01:55:07;;;;;;;3.33;2.00;;;14.50;99.90;;;;;;5104945;28;20227;-31
2023/05/31 01:57:39;;;;;;;4.27;2.40;;;14.50;99.90;;;;;;5095059;27;20207;-30
2023/05/31 02:00:15;;;;;;;3.17;2.07;;;14.50;99.90;;;;;;5096711;28;20208;-31
2023/05/31 02:02:44;;;;;;;4.40;2.30;;;14.40;99.90;;;;;;5115697;27;20179;-31
2023/05/31 02:05:12;;;;;;;6.23;2.37;;;14.40;99.90;;;;;;5100210;27;20195;-31
2023/05/31 02:07:40;;;;;;;5.43;2.50;;;14.40;99.90;;;;;;5117143;27;20198;-31
2023/05/31 02:10:07;;;;;;;4.93;2.67;;;14.30;99.90;;;;;;5096763;28;20172;-30
2023/05/31 02:12:35;;;;;;;4.60;2.27;;;14.20;99.90;;;;;;5096535;27;20191;-30
2023/05/31 02:15:01;;;;;;;4.20;2.50;;;14.20;99.90;;;;;;5116777;27;20210;-30
2023/05/31 02:17:28;;;;;;;4.20;2.30;;;14.20;99.90;;;;;;5117086;27;20184;-31
2023/05/31 02:19:55;;;;;;;4.07;2.20;;;14.20;99.90;;;;;;5116647;27;20199;-31
2023/05/31 02:22:21;;;;;;;5.40;2.40;;;14.30;99.90;;;;;;5099603;27;20185;-31
2023/05/31 02:24:47;;;;;;;7.03;2.57;;;14.20;99.90;;;;;;5123726;27;20290;-31
2023/05/31 02:27:14;;;;;;;4.83;2.00;;;14.20;99.90;;;;;;5122875;27;20175;-31
2023/05/31 02:29:40;;;;;;;3.67;2.23;;;14.30;99.90;;;;;;5099449;27;20211;-31
2023/05/31 02:32:06;;;;;;;4.87;2.10;;;14.40;99.90;;;;;;5116549;27;20179;-31
2023/05/31 02:34:33;;;;;;;4.07;2.40;;;14.40;99.90;;;;;;5133477;27;20214;-32
2023/05/31 02:37:00;;;;;;;3.67;2.33;;;14.40;99.90;;;;;;5095263;28;20212;-30
2023/05/31 02:39:26;;;;;;;4.33;2.23;;;14.30;99.90;;;;;;5099117;27;20253;-30
2023/05/31 02:41:52;;;;;;;4.00;2.53;;;14.20;99.90;;;;;;5119096;27;20182;-30
2023/05/31 02:44:18;;;;;;;4.23;2.20;;;14.20;99.90;;;;;;5090027;28;20230;-31
2023/05/31 02:46:44;;;;;;;5.97;2.50;;;14.30;99.90;;;;;;5114302;27;20171;-31
2023/05/31 02:49:11;;;;;;;3.57;2.50;;;14.30;99.90;;;;;;5095720;28;20186;-30
2023/05/31 02:51:37;;;;;;;3.93;2.30;;;14.30;99.90;;;;;;5109247;27;20184;-30
2023/05/31 02:54:21;;;;;;;3.03;2.50;;;14.30;99.90;;;;;;5106807;28;20731;-31
2023/05/31 02:56:47;;;;;;;4.53;2.70;;;14.20;99.90;;;;;;5106340;27;20183;-30
2023/05/31 02:59:18;;;;;;;3.50;2.40;;;14.10;99.90;;;;;;5108656;27;20211;-31
2023/05/31 03:01:51;;;;;;;3.03;2.30;;;14.00;99.90;;;;;;5098096;27;20214;-30
2023/05/31 03:04:30;;;;;;;3.40;2.40;;;13.90;99.90;;;;;;5109268;27;20223;-30
2023/05/31 03:06:58;;;;;;;7.23;2.57;;;13.80;99.90;;;;;;5119733;27;20166;-30
2023/05/31 03:09:24;;;;;;;5.37;2.53;;;13.70;99.90;;;;;;5088705;28;20256;-29
2023/05/31 03:11:51;;;;;;;3.90;2.40;;;13.60;99.90;;;;;;5122529;27;20189;-31
2023/05/31 03:14:19;;;;;;;3.83;2.27;;;13.70;99.90;;;;;;5099312;27;20210;-30
2023/05/31 03:16:47;;;;;;;3.80;2.40;;;13.60;99.90;;;;;;5107551;27;20191;-30
2023/05/31 03:19:13;;;;;;;3.67;2.20;;;13.70;99.90;;;;;;5095607;28;20234;-31
2023/05/31 03:21:41;;;;;;;5.27;2.60;;;13.70;99.90;;;;;;5110025;27;20671;-30
2023/05/31 03:24:06;;;;;;;3.47;2.63;;;13.70;99.90;;;;;;5097993;28;20226;-31
2023/05/31 03:26:32;;;;;;;3.60;2.40;;;13.70;99.90;;;;;;5099213;28;20175;-30
2023/05/31 03:28:58;;;;;;;2.80;2.27;;;13.60;99.90;;;;;;5099036;27;20265;-30
2023/05/31 03:31:29;;;;;;;4.53;2.60;;;13.50;99.90;;;;;;5095417;28;20195;-30
2023/05/31 03:33:56;;;;;;;4.83;2.70;;;13.60;99.90;;;;;;5098106;27;20202;-31
2023/05/31 03:36:21;;;;;;;3.60;2.40;;;13.50;99.90;;;;;;5116324;27;20190;-30
2023/05/31 03:38:47;;;;;;;4.87;2.40;;;13.50;99.90;;;;;;5116143;27;20198;-31
2023/05/31 03:41:15;;;;;;;8.20;2.50;;;13.50;99.90;;;;;;5095890;28;20182;-31
2023/05/31 03:43:41;;;;;;;4.20;2.87;;;13.40;99.90;;;;;;5096200;27;20193;-31
2023/05/31 03:46:08;;;;;;;6.03;2.93;;;13.30;99.90;;;;;;5095543;28;20178;-30
2023/05/31 03:48:36;;;;;;;5.53;3.03;;;13.20;99.90;;;;;;5112885;27;20181;-32
2023/05/31 03:51:02;;;;;;;5.10;2.77;;;13.10;99.90;;;;;;5095323;28;20668;-30
2023/05/31 03:53:28;;;;;;;3.27;2.50;;;13.00;99.90;;;;;;5106174;28;20202;-31
2023/05/31 03:55:56;;;;;;;4.60;2.90;;;13.00;99.90;;;;;;5106768;27;20195;-30
2023/05/31 03:58:22;;;;;;;5.03;2.30;;;12.90;99.90;;;;;;5098674;27;20218;-31
2023/05/31 04:00:48;;;;;;;6.10;3.03;;;12.90;99.90;;;;;;5096425;27;20617;-31
2023/05/31 04:03:14;;;;;;;6.00;2.83;;;12.90;99.90;;;;;;5115513;27;20188;-30
2023/05/31 04:05:40;;;;;;;4.20;3.20;;;12.90;99.90;;;;;;5095146;27;20184;-31
2023/05/31 04:08:07;;;;;;;3.37;2.47;;;12.90;99.90;;;;;;5095158;28;20178;-29
2023/05/31 04:10:34;;;;;;;3.93;2.90;;;12.80;99.90;;;;;;5111635;27;20185;-30
2023/05/31 04:13:00;;;;;;;3.30;2.53;;;12.80;99.90;;;;;;5097989;27;20659;-30
2023/05/31 04:15:26;;;;;;;6.23;3.17;;;12.80;99.90;;;;;;5095098;28;20221;-30
2023/05/31 04:17:56;;;;;;;7.80;2.93;;;12.70;99.90;;;;;;5097782;27;20243;-30
2023/05/31 04:20:23;;;;;;;6.13;3.10;;;12.70;99.90;;;;;;5115406;27;20184;-30
2023/05/31 04:22:53;;;;;;;5.03;3.83;;;12.70;99.90;;;;;;5112372;27;20192;-30
2023/05/31 04:25:20;;;;;;;4.73;2.90;;;12.70;99.90;;;;;;5106527;27;20202;-30
2023/05/31 04:27:47;;;;;;;5.50;3.20;;;12.70;99.90;;;;;;5115147;27;20188;-29
2023/05/31 04:30:13;;;;;;;4.70;3.20;;;12.70;99.90;;;;;;5094287;28;20173;-31
2023/05/31 04:32:40;;;;;;;6.57;2.67;;;12.70;99.90;;;;;;5103488;27;20186;-30
2023/05/31 04:35:08;;;;;;;4.40;3.03;;;12.80;99.90;;;;;;5099466;27;20702;-30
2023/05/31 04:37:39;;;;;;;13.23;3.23;;;12.80;99.90;;;;;;5114632;27;20230;-30
2023/05/31 04:40:09;;;;;;;4.97;3.07;;;12.80;99.90;;;;;;5106402;27;20289;-30
2023/05/31 04:42:36;;;;;;;4.47;3.00;;;12.90;99.90;;;;;;5094774;28;20194;-30
2023/05/31 04:45:04;;;;;;;6.30;2.80;;;13.00;99.90;;;;;;5098287;27;20233;-30
2023/05/31 04:47:36;;;;;;;5.47;2.50;;;13.10;99.90;;;;;;5094487;28;20217;-30
2023/05/31 04:50:02;;;;;;;3.53;2.50;;;13.20;99.90;;;;;;5114192;27;20302;-30
2023/05/31 04:52:29;;;;;;;4.23;2.77;;;13.30;99.90;;;;;;5093992;28;20287;-30
2023/05/31 04:54:56;;;;;;;5.77;2.80;;;13.30;99.90;;;;;;5087837;27;20241;-30
2023/05/31 04:57:24;;;;;;;4.80;3.20;;;13.40;99.90;;;;;;5114952;27;20244;-29
2023/05/31 04:59:50;;;;;;;5.87;2.90;;;13.40;99.90;;;;;;5115003;27;20197;-31
2023/05/31 05:02:18;;;;;;;5.47;3.03;;;13.40;99.90;;;;;;5094136;28;20218;-31
2023/05/31 05:04:44;;;;;;;4.70;3.00;;;13.40;99.90;;;;;;5111567;27;20288;-31
2023/05/31 05:07:10;;;;;;;5.47;3.00;;;13.50;99.90;;;;;;5113960;27;20188;-30
2023/05/31 05:09:37;;;;;;;4.33;2.50;;;13.50;99.90;;;;;;5094316;28;20179;-30
2023/05/31 05:12:05;;;;;;;4.70;3.00;;;13.50;99.90;;;;;;5114437;27;20189;-30
2023/05/31 05:14:32;;;;;;;4.33;3.00;;;13.50;99.90;;;;;;5093954;28;20214;-30
2023/05/31 05:16:58;;;;;;;4.60;2.97;;;13.50;99.90;;;;;;5095344;27;20182;-30
2023/05/31 05:19:24;;;;;;;4.87;2.90;;;13.60;99.90;;;;;;5114972;27;20284;-29
2023/05/31 05:21:50;;;;;;;3.83;2.80;;;13.70;99.90;;;;;;5129322;27;20225;-29
2023/05/31 05:24:16;;;;;;;6.97;3.40;;;13.70;99.90;;;;;;5099255;28;20205;-31
2023/05/31 05:26:44;;;;;;;4.57;3.03;;;13.80;99.90;;;;;;5113999;27;20182;-30
2023/05/31 05:29:10;;;;;;;8.13;3.40;;;13.90;99.90;;;;;;5113421;28;20243;-30
2023/05/31 05:31:37;;;;;;;6.03;3.10;;;14.00;99.90;;;;;;5114967;28;20266;-30
2023/05/31 05:34:05;;;;;;;4.73;3.00;;;14.10;99.90;;;;;;5114261;27;20213;-30
2023/05/31 05:36:31;;;;;;;5.07;2.97;;;14.20;99.90;;;;;;5114059;28;20246;-30
2023/05/31 05:39:03;;;;;;;5.93;2.87;;;14.30;99.90;;;;;;5096097;27;20198;-30
2023/05/31 05:41:30;;;;;;;4.00;2.70;;;14.50;99.90;;;;;;5132986;27;20199;-30
2023/05/31 05:43:57;;;;;;;8.40;3.13;;;14.70;99.90;;;;;;5114612;27;20285;-30
2023/05/31 05:46:23;;;;;;;4.83;2.80;;;14.90;99.90;;;;;;5093886;28;20183;-31
2023/05/31 05:48:49;;;;;;;7.10;2.43;;;15.10;99.90;;;;;;5104262;27;20179;-30
2023/05/31 05:51:16;;;;;;;3.33;2.33;;;15.30;99.90;;;;;;5098676;28;20171;-31
2023/05/31 05:53:42;;;;;;;4.83;2.20;;;15.50;99.90;;;;;;5102186;28;20200;-30
2023/05/31 05:56:08;;;;;;;5.03;2.37;;;15.80;99.90;;;;;;5097191;28;20319;-31
2023/05/31 05:58:46;;;;;;;4.97;2.43;;;16.00;99.90;;;;;;5113705;27;20210;-30
2023/05/31 06:01:30;;;;;;;8.33;2.60;;;16.20;99.90;;;;;;5132192;27;20198;-31
2023/05/31 06:03:57;;;;;;;3.10;2.00;;;16.50;99.90;;;;;;5113315;27;20203;-31
2023/05/31 06:06:23;;;;;;;5.37;2.10;;;16.70;99.90;;;;;;5113150;28;20183;-30
2023/05/31 06:08:49;;;;;;;4.70;2.60;;;16.90;99.90;;;;;;5093319;27;20191;-31
2023/05/31 06:11:16;;;;;;;3.27;1.83;;;17.00;99.90;;;;;;5095684;28;20202;-31
2023/05/31 06:13:43;;;;;;;3.90;2.40;;;17.20;99.90;;;;;;5112973;28;20229;-31
2023/05/31 06:16:10;;;;;;;2.57;1.90;;;17.40;99.90;;;;;;5136017;27;20737;-30
2023/05/31 06:18:36;;;;;;;3.97;2.27;;;17.50;99.90;;;;;;5083131;28;20255;-30
2023/05/31 06:21:03;;;;;;;3.30;1.83;;;17.70;99.90;;;;;;5094745;27;20180;-30
2023/05/31 06:23:29;;;;;;;5.10;2.60;;;17.80;99.90;;;;;;5104086;28;20199;-31
2023/05/31 06:25:56;;;;;;;3.90;2.28;;;18.00;99.90;;;;;;5095433;27;20172;-31
2023/05/31 06:28:22;;;;;;;3.63;2.15;;;18.10;99.90;;;;;;5121323;28;20210;-31
2023/05/31 06:30:51;;;;;;;3.92;2.10;;;18.30;99.90;;;;;;5112381;28;20183;-31
2023/05/31 06:33:17;;;;;;;3.08;2.13;;;18.40;99.90;;;;;;5094650;28;20187;-31
2023/05/31 06:35:44;;;;;;;3.20;2.10;;;18.50;99.90;;;;;;5112513;28;20187;-31
2023/05/31 06:38:15;;;;;;;4.00;2.20;;;18.70;99.90;;;;;;5112842;28;20198;-31
2023/05/31 06:40:42;;;;;;;3.05;1.95;;;18.80;99.90;;;;;;5113845;27;20198;-31
2023/05/31 06:43:10;;;;;;;6.38;2.30;;;19.00;99.90;;;;;;5099580;27;20167;-31
2023/05/31 06:45:54;;;;;;;3.08;2.00;;;19.10;99.90;;;;;;5134926;27;20236;-30
2023/05/31 06:48:20;;;;;;;4.40;2.10;;;19.30;99.90;;;;;;5116392;27;20183;-30
2023/05/31 06:51:05;;;;;;;3.30;2.10;;;19.30;99.90;;;;;;5119372;27;20187;-31
2023/05/31 06:54:09;;;;;;;5.95;2.50;;;19.50;99.90;;;;;;5050708;28;20696;-31
2023/05/31 06:56:36;;;;;;;4.07;2.20;;;19.70;99.90;;;;;;5033867;28;20177;-31
2023/05/31 06:59:02;;;;;;;5.30;2.28;;;19.80;99.90;;;;;;5080360;28;20211;-32
2023/05/31 07:01:28;;;;;;;3.40;2.17;;;19.90;99.90;;;;;;5095260;28;20180;-32
2023/05/31 07:03:54;;;;;;;5.45;2.42;;;19.90;99.90;;;;;;5095894;28;20206;-31
2023/05/31 07:06:20;;;;;;;4.18;2.45;;;20.00;99.90;;;;;;5095543;28;20205;-31
2023/05/31 07:08:46;;;;;;;3.50;2.42;;;20.00;99.90;;;;;;5096414;28;20191;-30
2023/05/31 07:11:31;;;;;;;4.28;2.20;;;20.20;99.90;;;;;;5098470;28;20328;-30
2023/05/31 07:14:01;;;;;;;7.50;2.85;;;20.30;99.90;;;;;;5095897;28;20204;-31
2023/05/31 07:16:28;;;;;;;4.13;2.38;;;20.40;99.90;;;;;;5095780;28;20176;-31
2023/05/31 07:18:56;;;;;;;5.85;2.22;;;20.50;99.90;;;;;;5114150;28;20196;-32
2023/05/31 07:21:23;;;;;;;7.82;2.10;;;20.70;99.90;;;;;;5079883;27;20179;-32
2023/05/31 07:23:49;;;;;;;5.97;3.22;;;20.80;99.90;;;;;;5134842;27;20214;-32
2023/05/31 07:26:15;;;;;;;4.50;2.40;;;20.80;99.90;;;;;;5115996;27;20282;-31
2023/05/31 07:28:45;;;;;;;6.28;2.63;;;20.90;99.90;;;;;;5099165;27;20187;-31
2023/05/31 07:31:12;;;;;;;5.00;2.60;;;20.80;99.90;;;;;;5115849;27;20254;-32
2023/05/31 07:33:38;;;;;;;5.00;2.83;;;20.80;99.90;;;;;;5134615;27;20191;-31
2023/05/31 07:36:05;;;;;;;4.55;2.60;;;20.90;99.90;;;;;;5099361;27;20186;-31
2023/05/31 07:38:30;;;;;;;3.92;2.20;;;21.00;99.90;;;;;;5116330;27;20231;-31
2023/05/31 07:40:56;;;;;;;5.10;2.80;;;21.10;99.90;;;;;;5116203;27;20215;-31
2023/05/31 07:43:23;;;;;;;6.78;2.30;;;21.20;99.90;;;;;;5116404;27;20191;-32
2023/05/31 07:45:50;;;;;;;6.38;2.75;;;21.30;99.90;;;;;;5134590;27;20178;-31
2023/05/31 07:48:19;;;;;;;3.60;2.65;;;21.50;99.90;;;;;;5116524;27;20179;-32
2023/05/31 07:50:46;;;;;;;4.75;2.50;;;21.40;99.90;;;;;;5099118;27;20207;-31
2023/05/31 07:53:12;;;;;;;6.20;2.30;;;21.60;99.90;;;;;;5110524;27;20186;-30
2023/05/31 07:55:38;;;;;;;4.18;2.30;;;21.50;99.90;;;;;;5115501;27;20172;-31
2023/05/31 07:58:04;;;;;;;5.32;2.45;;;21.70;99.90;;;;;;5098397;27;20190;-32
2023/05/31 08:00:30;;;;;;;8.80;2.90;;;21.80;99.90;;;;;;5116487;27;20271;-32
2023/05/31 08:02:55;;;;;;;5.07;2.30;;;21.80;99.90;;;;;;5135234;27;20266;-31
2023/05/31 08:05:21;;;;;;;4.03;2.50;;;21.80;99.90;;;;;;5099282;27;20194;-31
2023/05/31 08:07:48;;;;;;;3.53;2.25;;;21.90;99.90;;;;;;5116777;27;20205;-32
2023/05/31 08:10:16;;;;;;;5.45;2.40;;;22.00;99.90;;;;;;5134974;27;20190;-31
2023/05/31 08:12:42;;;;;;;4.78;2.65;;;22.20;99.90;;;;;;5134302;27;20172;-32
2023/05/31 08:15:08;;;;;;;9.35;3.22;;;22.30;99.90;;;;;;5116169;27;20233;-32
2023/05/31 08:17:35;;;;;;;8.30;2.85;;;22.40;99.90;;;;;;5116524;27;20239;-32
2023/05/31 08:20:01;;;;;;;6.93;2.60;;;22.20;99.90;;;;;;5115728;27;20207;-31
2023/05/31 08:22:27;;;;;;;4.85;2.63;;;22.20;99.90;;;;;;5111189;27;20178;-32
2023/05/31 08:24:53;;;;;;;5.47;2.88;;;22.40;99.90;;;;;;5115936;27;20289;-31
2023/05/31 08:27:18;;;;;;;4.93;2.67;;;22.50;99.90;;;;;;5115692;27;20203;-32
2023/05/31 08:29:45;;;;;;;5.13;2.80;;;22.60;99.90;;;;;;5116443;27;20175;-31
2023/05/31 08:32:11;;;;;;;9.65;2.78;;;22.60;99.90;;;;;;5115816;27;20175;-31
2023/05/31 08:34:36;;;;;;;7.95;2.67;;;22.80;99.90;;;;;;5115494;27;20199;-32
2023/05/31 08:37:02;;;;;;;5.43;2.67;;;23.00;99.90;;;;;;5133958;27;20172;-32
2023/05/31 08:39:29;;;;;;;11.07;3.03;;;23.00;99.90;;;;;;5115815;27;20234;-32
2023/05/31 08:42:19;;;;;;;9.18;2.92;;;23.10;99.90;;;;;;5115575;27;20178;-32
2023/05/31 08:44:46;;;;;;;12.48;2.85;;;23.30;99.90;;;;;;5115514;27;20195;-31
2023/05/31 08:47:24;;;;;;;9.80;2.65;;;23.30;99.90;;;;;;5115000;27;20175;-32
2023/05/31 08:49:52;;;;;;;3.97;2.30;;;23.40;99.90;;;;;;5115870;27;20186;-32
2023/05/31 08:52:20;;;;;;;5.13;2.40;;;23.30;99.90;;;;;;5110661;27;20223;-32
2023/05/31 08:54:47;;;;;;;5.95;2.63;;;23.60;99.90;;;;;;5114761;27;20195;-31
2023/05/31 08:57:14;;;;;;;6.93;2.90;;;23.70;99.90;;;;;;5116081;27;20284;-32
2023/05/31 08:59:40;;;;;;;5.85;2.80;;;23.90;99.90;;;;;;5099304;27;20279;-32
2023/05/31 09:02:08;;;;;;;4.15;2.70;;;24.00;99.90;;;;;;5115658;27;20275;-32
2023/05/31 09:04:35;;;;;;;3.88;2.45;;;23.90;99.90;;;;;;5131040;27;20187;-32
2023/05/31 09:07:01;;;;;;;4.80;2.35;;;23.80;99.70;;;;;;5115349;27;20183;-32
2023/05/31 09:09:28;;;;;;;4.65;2.70;;;24.00;99.30;;;;;;5133973;27;20210;-32
2023/05/31 09:11:54;;;;;;;9.15;2.80;;;24.20;99.80;;;;;;5133819;27;20172;-31
2023/05/31 09:14:24;;;;;;;3.80;2.60;;;24.30;99.30;;;;;;5115001;27;20211;-31
2023/05/31 09:16:50;;;;;;;5.32;2.72;;;24.50;98.00;;;;;;5114762;27;20182;-32
2023/05/31 09:19:16;;;;;;;4.65;2.72;;;24.60;98.10;;;;;;5134064;27;20234;-32
2023/05/31 09:21:43;;;;;;;3.22;2.55;;;24.80;99.10;;;;;;5097948;28;20213;-32
2023/05/31 09:24:12;;;;;;;5.50;2.65;;;25.00;98.20;;;;;;5114758;27;20195;-32
2023/05/31 09:26:56;;;;;;;5.80;2.88;;;25.10;97.70;;;;;;5132926;27;20175;-31
2023/05/31 09:29:22;;;;;;;2.72;2.33;;;25.10;98.20;;;;;;5115047;28;20183;-32
2023/05/31 09:31:48;;;;;;;4.40;2.35;;;25.30;97.00;;;;;;5133195;28;20697;-32
2023/05/31 09:34:27;;;;;;;2.47;2.22;;;25.40;97.30;;;;;;5133123;28;20203;-32
2023/05/31 09:36:57;;;;;;;5.22;2.75;;;25.40;97.20;;;;;;5132832;28;20178;-32
2023/05/31 09:39:23;;;;;;;5.10;2.55;;;25.50;96.10;;;;;;5114534;28;20661;-32
2023/05/31 09:41:50;;;;;;;4.25;2.63;;;25.40;96.50;;;;;;5113969;28;20179;-32
2023/05/31 09:44:16;;;;;;;4.05;2.90;;;25.40;95.40;;;;;;5132611;28;20198;-32
2023/05/31 09:46:45;;;;;;;4.88;2.72;;;25.50;94.80;;;;;;5113909;28;20175;-31
2023/05/31 09:49:11;;;;;;;4.38;2.47;;;25.60;95.50;;;;;;5112226;27;20189;-32
2023/05/31 09:51:37;;;;;;;3.92;2.30;;;25.60;96.00;;;;;;5130957;27;20191;-32
2023/05/31 09:54:10;;;;;;;3.33;2.60;;;25.90;96.40;;;;;;5113337;27;20286;-32
2023/05/31 09:56:39;;;;;;;5.55;2.78;;;26.10;95.20;;;;;;5113628;28;20179;-31
2023/05/31 09:59:06;;;;;;;6.13;2.78;;;26.10;95.20;;;;;;5114027;28;20233;-32
2023/05/31 10:01:32;;;;;;;6.22;2.88;;;26.10;94.20;;;;;;5113655;28;20170;-32
2023/05/31 10:04:05;;;;;;;5.35;2.70;;;26.00;93.90;;;;;;5096444;28;20203;-32
2023/05/31 10:06:36;;;;;;;4.65;2.47;;;26.00;95.10;;;;;;5113206;28;20175;-32
2023/05/31 10:09:07;;;;;;;6.50;2.70;;;26.10;95.70;;;;;;5113403;28;20190;-33
2023/05/31 10:11:37;;;;;;;3.92;2.40;;;26.40;95.00;;;;;;5096366;28;20217;-33
2023/05/31 10:14:27;;;;;;;4.43;2.63;;;26.40;93.50;;;;;;5096918;28;20207;-32
2023/05/31 10:16:58;;;;;;;6.40;2.60;;;26.60;94.80;;;;;;5102150;27;20247;-32
2023/05/31 10:19:35;;;;;;;8.02;2.78;;;26.50;94.00;;;;;;5100578;27;20213;-32
2023/05/31 10:22:03;;;;;;;8.45;2.80;;;26.60;93.50;;;;;;5117759;27;20238;-32
2023/05/31 10:24:38;;;;;;;6.95;2.45;;;26.40;92.20;;;;;;5134724;27;20203;-33
2023/05/31 10:27:11;;;;;;;4.22;2.85;;;26.30;93.00;;;;;;5117275;27;20174;-33
2023/05/31 10:29:43;;;;;;;4.95;2.30;;;26.40;92.80;;;;;;5136138;27;20288;-33
2023/05/31 10:32:17;;;;;;;4.53;2.45;;;26.50;93.60;;;;;;5118037;27;20176;-33
2023/05/31 10:34:43;;;;;;;6.28;2.60;;;26.70;92.90;;;;;;5099879;27;20207;-33
2023/05/31 10:37:10;;;;;;;6.30;2.70;;;26.70;92.70;;;;;;5116970;27;20186;-32
2023/05/31 10:40:16;;;;;;;3.65;2.17;;;26.90;93.00;;;;;;5134319;27;20239;-32
2023/05/31 10:43:26;;;;;;;3.55;2.13;;;26.80;92.10;;;;;;5101119;27;20203;-33
2023/05/31 10:45:56;;;;;;;3.97;2.60;;;26.90;92.20;;;;;;5072206;27;20311;-32
2023/05/31 10:48:45;;;;;;;4.65;2.53;;;26.90;92.10;;;;;;5117306;27;20204;-33
2023/05/31 10:51:12;;;;;;;3.42;2.65;;;26.90;91.90;;;;;;5100927;27;20178;-33
2023/05/31 10:53:39;;;;;;;3.63;2.65;;;27.00;91.60;;;;;;5134928;27;20211;-33
2023/05/31 10:56:11;;;;;;;6.53;2.60;;;27.00;92.00;;;;;;5117298;27;20656;-33
2023/05/31 10:58:42;;;;;;;3.45;2.20;;;27.30;91.60;;;;;;5135941;27;20210;-32
2023/05/31 11:01:11;;;;;;;6.13;2.53;;;27.40;90.50;;;;;;5117648;27;20191;-32
2023/05/31 11:03:48;;;;;;;5.97;2.70;;;27.40;90.70;;;;;;5117346;27;20203;-33
2023/05/31 11:06:17;;;;;;;3.53;2.10;;;27.30;90.80;;;;;;5117091;27;20179;-32
2023/05/31 11:09:08;;;;;;;5.15;2.50;;;27.30;90.20;;;;;;5117552;27;20231;-33
2023/05/31 11:11:34;;;;;;;2.97;2.25;;;27.00;91.00;;;;;;5135558;27;20178;-33
2023/05/31 11:14:10;;;;;;;5.80;2.83;;;27.10;90.80;;;;;;5100276;27;20203;-33
2023/05/31 11:16:48;;;;;;;3.55;2.30;;;27.40;91.50;;;;;;5100490;27;20198;-32
2023/05/31 11:19:19;;;;;;;4.95;2.53;;;27.40;91.20;;;;;;5117188;27;20274;-32
2023/05/31 11:22:07;;;;;;;3.97;2.58;;;27.30;91.10;;;;;;5113151;28;20172;-32
2023/05/31 11:24:49;;;;;;;4.50;2.28;;;27.40;90.20;;;;;;5110337;27;20209;-32
2023/05/31 11:27:16;;;;;;;5.13;2.50;;;27.60;90.80;;;;;;5099893;27;20171;-32
2023/05/31 11:29:46;;;;;;;5.22;2.60;;;27.60;90.80;;;;;;5117212;27;20184;-33
2023/05/31 11:32:15;;;;;;;4.85;2.65;;;27.70;90.20;;;;;;5099833;27;20200;-33
2023/05/31 11:35:02;;;;;;;3.72;2.40;;;27.90;89.20;;;;;;5099536;27;20229;-33
2023/05/31 11:37:30;;;;;;;4.00;2.55;;;28.20;90.70;;;;;;5116433;27;20183;-33
2023/05/31 11:40:00;;;;;;;4.35;2.58;;;28.40;90.20;;;;;;5096275;28;20332;-32
2023/05/31 11:42:30;;;;;;;3.30;2.15;;;28.30;87.60;;;;;;5079654;28;20253;-33
2023/05/31 11:44:57;;;;;;;4.63;2.33;;;28.30;86.30;;;;;;5096460;28;20192;-33
2023/05/31 11:47:26;;;;;;;3.05;2.40;;;28.20;87.70;;;;;;5114770;28;20180;-33
2023/05/31 11:49:52;;;;;;;14.75;3.20;;;28.20;89.10;;;;;;5096407;28;20175;-33
2023/05/31 11:52:20;;;;;;;9.85;2.88;;;28.20;90.20;;;;;;5100631;28;20211;-33
2023/05/31 11:54:48;;;;;;;5.20;2.47;;;28.30;88.10;;;;;;5090854;28;20271;-33
2023/05/31 11:57:16;;;;;;;3.30;2.22;;;28.50;89.20;;;;;;5096305;28;20180;-32
2023/05/31 11:59:43;;;;;;;4.65;2.50;;;28.50;87.00;;;;;;5096200;28;20206;-33
2023/05/31 12:02:10;;;;;;;4.07;2.38;;;28.70;87.10;;;;;;5113949;28;20183;-33
2023/05/31 12:04:36;;;;;;;3.90;2.88;;;28.60;87.70;;;;;;5079025;28;20750;-33
2023/05/31 12:07:19;;;;;;;18.55;3.35;;;28.60;89.40;;;;;;5113562;28;20199;-33
2023/05/31 12:09:46;;;;;;;16.85;3.10;;;28.80;90.10;;;;;;5098002;27;20183;-33
2023/05/31 12:12:12;;;;;;;19.00;3.00;;;28.70;88.00;;;;;;5115605;27;20198;-33
2023/05/31 12:14:37;;;;;;;6.68;2.33;;;28.60;88.10;;;;;;5097708;27;20242;-33
2023/05/31 12:17:05;;;;;;;4.68;2.70;;;28.50;87.20;;;;;;5098214;27;20189;-33
2023/05/31 12:19:36;;;;;;;3.63;2.35;;;28.50;85.80;;;;;;5098692;27;20211;-32
2023/05/31 12:22:05;;;;;;;4.93;2.30;;;28.50;84.90;;;;;;5115463;27;20183;-31
2023/05/31 12:24:31;;;;;;;3.60;2.10;;;28.60;84.50;;;;;;5115310;27;20249;-33
2023/05/31 12:26:57;;;;;;;5.07;2.45;;;28.50;85.50;;;;;;5098570;27;20206;-32
2023/05/31 12:29:30;;;;;;;14.23;2.70;;;28.80;88.30;;;;;;5099037;27;20183;-32
2023/05/31 12:32:06;;;;;;;14.70;2.90;;;28.90;85.60;;;;;;5115512;27;20178;-33
2023/05/31 12:34:36;;;;;;;8.07;2.45;;;28.90;86.60;;;;;;5115380;27;20205;-33
2023/05/31 12:37:07;;;;;;;5.97;2.42;;;28.90;84.60;;;;;;5132438;27;20182;-32
2023/05/31 12:39:36;;;;;;;5.75;2.20;;;29.00;83.80;;;;;;5114672;27;20266;-32
2023/05/31 12:42:03;;;;;;;3.58;2.20;;;29.20;84.80;;;;;;5098071;27;20175;-33
2023/05/31 12:44:30;;;;;;;8.05;2.63;;;29.40;85.00;;;;;;5098372;27;20214;-33
2023/05/31 12:47:01;;;;;;;4.65;2.20;;;29.50;82.10;;;;;;5115236;27;20210;-33
2023/05/31 12:49:34;;;;;;;4.65;2.30;;;29.40;84.40;;;;;;5098894;27;20189;-32
2023/05/31 12:52:02;;;;;;;4.75;2.30;;;29.30;84.60;;;;;;5115054;27;20206;-33
2023/05/31 12:54:33;;;;;;;7.82;2.65;;;29.30;82.60;;;;;;5114416;27;20210;-33